Flight Track Log - Related Links

Times and Time Zones

All times are in EDT time to prevent confusion due to time zone crossing. See the SWA2610 flight status page for this flight to view local times or setup timezone preferences in your user account.

Time Position Orientation Groundspeed Altitude Reporting Facility
EDT Latitude Longitude Course Direction KTS MPH feet Rate Location/Type
Wed 09:36:07 AM 32.7486 -117.2339 304° West 190 219 1,500  Level Los Angeles Center
Wed 09:37:08 AM 32.7842 -117.2958 304° West 220 253 4,200 2,537 Climbing Los Angeles Center
Wed 09:38:10 AM 32.8253 -117.3547 310° West 249 287 6,700 3,171 Climbing Los Angeles Center
Wed 09:39:11 AM 32.8864 -117.4358 312° West 271 312 10,700 2,803 Climbing Los Angeles Center
Wed 09:40:12 AM 32.9456 -117.5164 311° West 324 373 12,400 2,164 Climbing Los Angeles Center
Wed 09:41:13 AM 33.0089 -117.6017 312° West 342 394 15,100 2,459 Climbing Los Angeles Center
Wed 09:42:14 AM 33.0747 -117.6900 312° West 351 404 17,400 2,195 Climbing Los Angeles Center
Wed 09:43:16 AM 33.1419 -117.7819 311° West 363 418 19,600 2,000 Climbing Los Angeles Center
Wed 09:44:17 AM 33.1986 -117.8864 303° West 377 434 21,500 1,918 Climbing Los Angeles Center
Wed 09:45:18 AM 33.2369 -118.0042 291° West 380 437 23,500 1,672 Climbing Los Angeles Center
Wed 09:46:19 AM 33.2772 -118.1247 292° West 386 444 24,900 1,561 Climbing Los Angeles Center
Wed 09:47:21 AM 33.3178 -118.2497 291° West 398 458 26,700 1,561 Climbing Los Angeles Center
Wed 09:48:22 AM 33.3800 -118.3628 303° West 412 474 28,100 1,672 Climbing Los Angeles Center
Wed 09:49:23 AM 33.4594 -118.4603 314° West 409 471 30,100 1,778 Climbing Los Angeles Center
Wed 09:50:37 AM 33.5383 -118.5569 314° West 402 463 32,100 1,867 Climbing Los Angeles Center
Wed 09:51:38 AM 33.6425 -118.6861 314° West 384 442 34,300 1,610 Climbing Los Angeles Center
Wed 09:52:40 AM 33.7172 -118.7783 314° West 381 438 35,400 829 Climbing Los Angeles Center
Wed 09:53:41 AM 33.7906 -118.8694 314° West 379 436 36,000 295 Climbing Los Angeles Center
Wed 09:54:42 AM 33.8497 -118.9431 314° West 382 440 36,000  Level Los Angeles Center
Wed 09:55:44 AM 33.9381 -119.0533 314° West 380 437 36,000  Level Los Angeles Center
Wed 09:56:46 AM 34.0128 -119.1472 314° West 385 443 36,000  Level Los Angeles Center
Wed 09:57:47 AM 34.0872 -119.2386 315° West 384 442 36,000  Level Los Angeles Center
Wed 09:59:01 AM 34.1606 -119.3319 314° West 383 441 36,000  Level Los Angeles Center
Wed 10:00:02 AM 34.2492 -119.4436 314° West 383 441 36,000  Level Los Angeles Center
Wed 10:01:03 AM 34.3069 -119.5178 313° West 380 437 36,000  Level Los Angeles Center
Wed 10:02:05 AM 34.4100 -119.6478 314° West 382 440 36,000  Level Los Angeles Center
Wed 10:03:07 AM 34.4828 -119.7400 314° West 379 436 36,000  Level Los Angeles Center
Wed 10:04:12 AM 34.5669 -119.8225 321° Northwest 387 445 36,000  Level Los Angeles Center
Wed 10:05:13 AM 34.6553 -119.8922 327° Northwest 392 451 36,000  Level Los Angeles Center
Wed 10:06:26 AM 34.7639 -119.9808 326° Northwest 392 451 36,000  Level Los Angeles Center
Wed 10:07:25 AM 34.8533 -120.0558 325° Northwest 391 450 36,000  Level Los Angeles Center
Wed 10:08:27 AM 34.9583 -120.1417 326° Northwest 393 452 36,000  Level Los Angeles Center
Wed 10:09:28 AM 35.0447 -120.2144 325° Northwest 383 441 36,000  Level Los Angeles Center
Wed 10:10:30 AM 35.1322 -120.2875 326° Northwest 383 441 36,000  Level Los Angeles Center
Wed 10:11:31 AM 35.2194 -120.3606 326° Northwest 382 440 36,000  Level Los Angeles Center
Wed 10:12:33 AM 35.3058 -120.4336 325° Northwest 385 443 36,000  Level Los Angeles Center
Wed 10:13:35 AM 35.3942 -120.5108 325° Northwest 402 463 36,000  Level Los Angeles Center
Wed 10:14:36 AM 35.4817 -120.5844 326° Northwest 387 445 36,000  Level Los Angeles Center
Wed 10:15:38 AM 35.5850 -120.6717 326° Northwest 378 435 36,000  Level Los Angeles Center
Wed 10:16:13 AM 35.6322 -120.7119 325° Northwest 378 435 36,000  Level Oakland Center
Wed 10:17:14 AM 35.7189 -120.7853 326° Northwest 376 433 36,000  Level Oakland Center
Wed 10:18:15 AM 35.8042 -120.8581 325° Northwest 374 430 36,000  Level Oakland Center
Wed 10:19:16 AM 35.8894 -120.9311 325° Northwest 374 430 36,000 -1,230 Level Oakland Center
Wed 10:20:17 AM 35.9750 -121.0047 325° Northwest 374 430 33,500 -2,537 Descending Oakland Center
Wed 10:21:19 AM 36.0597 -121.0797 324° Northwest 374 430 30,800 -2,656 Descending Oakland Center
Wed 10:22:19 AM 36.1594 -121.1636 326° Northwest 364 419 28,100 -2,430 Descending Oakland Center
Wed 10:23:20 AM 36.2367 -121.2311 325° Northwest 346 398 25,900 -2,115 Descending Oakland Center
Wed 10:24:21 AM 36.3111 -121.2958 325° Northwest 332 382 23,800 -1,967 Descending Oakland Center
Wed 10:25:22 AM 36.3831 -121.3564 326° Northwest 315 362 21,900 -1,854 Descending Oakland Center
Wed 10:26:24 AM 36.4511 -121.4161 325° Northwest 300 345 20,000 -1,355 Descending Oakland Center
Wed 10:27:26 AM 36.5189 -121.4753 325° Northwest 297 342 19,100 -1,033 Descending Oakland Center
Wed 10:28:26 AM 36.5947 -121.5350 328° Northwest 316 364 17,900 -1,587 Descending Oakland Center
Wed 10:29:27 AM 36.6917 -121.5419 357° North 339 390 15,900 -2,213 Descending Oakland Center
Wed 10:30:28 AM 36.7836 -121.5483 357° North 335 386 13,400 -2,557 Descending Oakland Center
Wed 10:31:29 AM 36.8781 -121.5592 355° North 330 380 10,700 -2,000 Descending Oakland Center
Wed 10:32:31 AM 36.9578 -121.5919 342° North 306 352 9,300 -1,512 Descending Oakland Center
Wed 10:33:32 AM 37.0214 -121.6339 332° Northwest 266 306 7,600 -1,672 Descending Oakland Center
Wed 10:34:33 AM 37.0842 -121.6700 335° Northwest 252 290 5,900 -1,328 Descending Oakland Center
Wed 10:35:34 AM 37.1531 -121.7086 336° Northwest 227 261 4,900 -836 Descending Oakland Center
Wed 10:36:35 AM 37.1997 -121.7497 325° Northwest 213 245 4,200 -927 Descending Oakland Center
Wed 10:37:37 AM 37.2411 -121.7972 318° Northwest 206 237 3,000 -1,073 Descending Oakland Center
Wed 10:38:38 AM 37.2789 -121.8408 317° Northwest 196 226 2,000 -885 Descending Oakland Center
Wed 10:39:39 AM 37.3075 -121.8725 319° Northwest 159 183 1,200 -738 Descending Oakland Center
Wed 10:40:40 AM 37.3364 -121.9031 320° Northwest 142 163 500 -689 Descending Oakland Center
Wed 10:43:00 AM 37.3500 -121.9167 North  Level FlightAware Approximate

Login

Don't have an account? Register now (free) for customized features, flight alerts, and more!